Aviation Digital Data Service (ADDS)

Output produced by TAFs form (2201 UTC 25 October 2014)
found at http://www.aviationweather.gov/adds/tafs/
 
KMRB 251730Z 2518/2618 26010KT P6SM SCT090 
     FM260600 30010KT P6SM FEW250 
     FM261500 30015G25KT P6SM SKC